createdAt,value
2022-09-21T00:01:23.580Z,4.30
2022-09-21T00:03:58.534Z,5.05
2022-09-21T00:06:26.989Z,4.33
2022-09-21T00:08:55.249Z,9.38
2022-09-21T00:11:25.290Z,4.75
2022-09-21T00:13:57.377Z,5.35
2022-09-21T00:16:24.330Z,5.30
2022-09-21T00:21:38.635Z,4.65
2022-09-21T00:26:53.862Z,4.80
2022-09-21T00:32:07.286Z,5.90
2022-09-21T00:34:34.061Z,7.60
2022-09-21T00:37:00.824Z,6.25
2022-09-21T00:39:27.516Z,4.63
2022-09-21T00:41:54.385Z,4.10
2022-09-21T00:44:32.555Z,4.95
2022-09-21T00:47:06.553Z,3.70
2022-09-21T00:49:34.481Z,5.10
2022-09-21T00:52:03.383Z,4.10
2022-09-21T00:54:36.138Z,6.50
2022-09-21T00:57:03.398Z,8.20
2022-09-21T00:59:37.283Z,6.95
2022-09-21T01:04:54.941Z,6.25
2022-09-21T01:08:31.656Z,0
2022-09-21T01:16:56.536Z,10.90
2022-09-21T01:19:54.253Z,7.13
2022-09-21T01:23:08.766Z,5.43
2022-09-21T01:25:47.778Z,7.43
2022-09-21T01:31:31.869Z,5.80
2022-09-21T01:34:03.929Z,6.38
2022-09-21T01:36:32.314Z,8.57
2022-09-21T01:41:57.590Z,6.82
2022-09-21T01:44:28.925Z,7.68
2022-09-21T01:46:57.080Z,5.53
2022-09-21T01:52:40.646Z,5.15
2022-09-21T01:55:27.567Z,6.40
2022-09-21T01:58:13.233Z,6.22
2022-09-21T02:00:42.132Z,8.27
2022-09-21T02:03:25.445Z,9.80
2022-09-21T02:05:52.249Z,7.78
2022-09-21T02:08:18.989Z,8.40
2022-09-21T02:10:50.645Z,8.05
2022-09-21T02:13:19.605Z,6.78
2022-09-21T02:15:52.124Z,7.28
2022-09-21T02:18:43.742Z,7.22
2022-09-21T02:21:31.474Z,6.25
2022-09-21T02:24:13.763Z,6.60
2022-09-21T02:26:47.962Z,6.95
2022-09-21T02:29:28.616Z,6.10
2022-09-21T02:32:06.165Z,5.50
2022-09-21T02:37:51.409Z,6.03
2022-09-21T02:40:28.999Z,8.65
2022-09-21T02:43:04.202Z,9.48
2022-09-21T02:45:35.310Z,5.75
2022-09-21T02:48:15.315Z,6.00
2022-09-21T02:53:36.442Z,6.20
2022-09-21T02:58:54.771Z,5.68
2022-09-21T03:04:10.406Z,6.85
2022-09-21T03:09:23.924Z,7.32
2022-09-21T03:14:38.112Z,5.68
2022-09-21T03:19:51.615Z,7.10
2022-09-21T03:22:18.365Z,6.80
2022-09-21T03:24:45.058Z,6.85
2022-09-21T03:27:12.812Z,7.35
2022-09-21T03:29:39.555Z,5.75
2022-09-21T03:32:06.801Z,6.72
2022-09-21T03:34:33.531Z,6.60
2022-09-21T03:39:52.147Z,7.80
2022-09-21T03:43:58.374Z,0
2022-09-21T03:45:28.276Z,6.90
2022-09-21T03:48:00.188Z,9.60
2022-09-21T03:50:28.363Z,6.93
2022-09-21T03:52:56.114Z,6.40
2022-09-21T03:55:23.346Z,7.60
2022-09-21T03:57:50.177Z,8.55
2022-09-21T04:00:17.763Z,7.90
2022-09-21T04:02:44.545Z,8.02
2022-09-21T04:05:13.452Z,10.32
2022-09-21T04:07:41.026Z,18.95
2022-09-21T04:10:10.780Z,19.48
2022-09-21T04:12:37.492Z,10.20
2022-09-21T04:15:04.628Z,7.30
2022-09-21T04:17:31.378Z,8.52
2022-09-21T04:19:58.104Z,10.47
2022-09-21T04:22:24.944Z,7.78
2022-09-21T04:24:52.160Z,7.72
2022-09-21T04:27:18.921Z,7.57
2022-09-21T04:29:45.764Z,8.70
2022-09-21T04:35:22.259Z,13.13
2022-09-21T04:37:48.944Z,16.58
2022-09-21T04:40:15.720Z,12.48
2022-09-21T04:42:42.534Z,9.70
2022-09-21T04:45:09.783Z,11.80
2022-09-21T04:47:36.521Z,10.60
2022-09-21T04:50:03.491Z,12.55
2022-09-21T04:52:30.187Z,10.25
2022-09-21T04:54:56.931Z,9.90
2022-09-21T04:57:23.726Z,10.07
2022-09-21T04:59:50.431Z,12.27
2022-09-21T05:02:17.162Z,12.90
2022-09-21T05:04:47.518Z,12.77
2022-09-21T05:07:17.197Z,88.85
2022-09-21T05:09:43.946Z,22.10
2022-09-21T05:12:10.689Z,19.23
2022-09-21T05:14:42.953Z,0
2022-09-21T05:17:29.763Z,50.10
2022-09-21T05:19:56.475Z,18.95
2022-09-21T05:22:23.260Z,20.02
2022-09-21T05:24:49.993Z,18.55
2022-09-21T05:27:16.813Z,19.73
2022-09-21T05:29:43.845Z,14.77
2022-09-21T05:32:24.108Z,31.00
2022-09-21T05:35:28.907Z,18.80
2022-09-21T05:38:11.548Z,17.23
2022-09-21T05:40:38.564Z,17.73
2022-09-21T05:43:05.564Z,27.70
2022-09-21T05:45:32.814Z,19.15
2022-09-21T05:48:06.225Z,21.87
2022-09-21T05:50:57.309Z,41.28
2022-09-21T05:53:39.109Z,40.08
2022-09-21T05:56:32.950Z,21.45
2022-09-21T05:59:28.336Z,55.55
2022-09-21T06:04:57.302Z,84.25
2022-09-21T06:10:13.309Z,39.97
2022-09-21T06:15:27.310Z,33.72
2022-09-21T06:20:40.699Z,49.25
2022-09-21T06:23:09.381Z,35.67
2022-09-21T06:25:36.136Z,30.93
2022-09-21T06:28:07.756Z,30.02
2022-09-21T06:33:21.408Z,18.20
2022-09-21T06:38:46.469Z,18.88
2022-09-21T06:41:17.340Z,17.50
2022-09-21T06:43:46.921Z,18.00
2022-09-21T06:46:13.686Z,20.25
2022-09-21T06:51:27.112Z,13.23
2022-09-21T06:56:45.176Z,10.45
2022-09-21T06:58:10.966Z,0
2022-09-21T07:00:42.592Z,0
2022-09-21T07:02:21.503Z,14.38
2022-09-21T07:04:48.229Z,19.30
2022-09-21T07:07:14.945Z,19.52
2022-09-21T07:10:21.655Z,0
2022-09-21T07:15:15.747Z,11.48
2022-09-21T07:17:42.450Z,11.95
2022-09-21T07:18:06.488Z,0
2022-09-21T07:19:16.993Z,0
2022-09-21T07:20:09.360Z,10.80
2022-09-21T07:22:36.525Z,9.30
2022-09-21T07:25:05.315Z,9.18
2022-09-21T07:27:33.578Z,8.07
2022-09-21T07:30:00.513Z,9.13
2022-09-21T07:32:27.471Z,9.60
2022-09-21T07:34:54.212Z,9.40
2022-09-21T07:37:20.943Z,11.27
2022-09-21T07:39:47.662Z,8.18
2022-09-21T07:42:14.375Z,10.70
2022-09-21T07:47:27.781Z,11.10
2022-09-21T07:49:54.619Z,10.90
2022-09-21T07:52:21.445Z,13.67
2022-09-21T07:54:48.169Z,12.63
2022-09-21T07:57:14.891Z,9.20
2022-09-21T08:02:28.358Z,8.85
2022-09-21T08:05:48.078Z,0
2022-09-21T08:08:13.522Z,10.55
2022-09-21T08:10:40.234Z,10.50
2022-09-21T08:13:06.966Z,7.60
2022-09-21T08:15:50.319Z,5.90
2022-09-21T08:15:52.669Z,0
2022-09-21T08:18:17.207Z,6.03
2022-09-21T08:20:43.920Z,7.05
2022-09-21T08:23:10.636Z,11.98
2022-09-21T08:25:37.334Z,10.10
2022-09-21T08:28:08.848Z,8.52
2022-09-21T08:30:36.649Z,9.98
2022-09-21T08:32:53.925Z,0
2022-09-21T08:33:03.412Z,5.97
2022-09-21T08:35:30.125Z,5.60
2022-09-21T08:37:56.837Z,5.47
2022-09-21T08:40:24.023Z,7.28
2022-09-21T08:43:10.562Z,6.93
2022-09-21T08:45:43.995Z,7.10
2022-09-21T08:48:22.850Z,5.90
2022-09-21T08:50:59.202Z,8.57
2022-09-21T08:53:38.298Z,6.00
2022-09-21T08:56:05.270Z,4.82
2022-09-21T08:58:33.078Z,4.22
2022-09-21T09:01:21.077Z,5.15
2022-09-21T09:04:09.371Z,5.28
2022-09-21T09:06:56.069Z,5.90
2022-09-21T09:12:45.607Z,4.90
2022-09-21T09:15:15.094Z,4.45
2022-09-21T09:17:49.968Z,3.97
2022-09-21T09:21:34.762Z,0
2022-09-21T09:23:20.709Z,4.90
2022-09-21T09:26:02.823Z,4.50
2022-09-21T09:28:41.980Z,4.13
2022-09-21T09:31:18.070Z,5.70
2022-09-21T09:34:02.668Z,4.13
2022-09-21T09:36:56.592Z,5.68
2022-09-21T09:37:01.737Z,0
2022-09-21T09:39:19.650Z,3.85
2022-09-21T09:41:55.563Z,4.22
2022-09-21T09:47:55.573Z,4.38
2022-09-21T09:50:35.558Z,4.10
2022-09-21T09:53:13.045Z,4.15
2022-09-21T09:55:43.794Z,3.70
2022-09-21T09:58:33.571Z,5.47
2022-09-21T10:01:00.527Z,5.80
2022-09-21T10:06:31.741Z,4.80
2022-09-21T10:08:58.638Z,3.60
2022-09-21T10:11:36.302Z,5.00
2022-09-21T10:14:14.730Z,3.55
2022-09-21T10:16:42.050Z,5.32
2022-09-21T10:21:55.955Z,3.30
2022-09-21T10:27:28.589Z,4.30
2022-09-21T10:29:55.730Z,5.00
2022-09-21T10:32:27.192Z,4.85
2022-09-21T10:35:06.254Z,3.55
2022-09-21T10:37:35.613Z,4.55
2022-09-21T10:41:06.645Z,0
2022-09-21T10:43:43.573Z,6.75
2022-09-21T10:46:11.136Z,4.07
2022-09-21T10:48:38.105Z,4.30
2022-09-21T10:51:05.104Z,4.22
2022-09-21T10:53:36.735Z,3.30
2022-09-21T10:56:19.531Z,4.55
2022-09-21T10:56:19.920Z,0
2022-09-21T10:59:10.840Z,4.60
2022-09-21T11:07:51.801Z,4.65
2022-09-21T11:10:33.989Z,4.30
2022-09-21T11:13:17.751Z,4.60
2022-09-21T11:16:08.479Z,4.07
2022-09-21T11:18:46.710Z,3.60
2022-09-21T11:21:29.391Z,3.60
2022-09-21T11:24:14.146Z,8.70
2022-09-21T11:29:45.722Z,4.80
2022-09-21T11:32:18.413Z,4.55
2022-09-21T11:35:04.000Z,4.23
2022-09-21T11:37:39.906Z,6.10
2022-09-21T11:38:43.706Z,0
2022-09-21T11:40:24.931Z,4.00
2022-09-21T11:43:10.460Z,3.50
2022-09-21T11:45:56.009Z,3.90
2022-09-21T11:48:38.835Z,3.80
2022-09-21T11:51:20.291Z,3.70
2022-09-21T11:54:05.774Z,4.57
2022-09-21T11:57:01.733Z,3.75
2022-09-21T12:05:56.751Z,3.38
2022-09-21T12:08:23.635Z,4.55
2022-09-21T12:11:06.764Z,4.90
2022-09-21T12:13:59.929Z,3.45
2022-09-21T12:16:29.636Z,5.13
2022-09-21T12:19:03.562Z,3.60
2022-09-21T12:21:38.811Z,6.67
2022-09-21T12:24:46.219Z,4.90
2022-09-21T12:27:27.731Z,3.30
2022-09-21T12:30:02.051Z,4.95
2022-09-21T12:32:51.871Z,6.80
2022-09-21T12:35:25.476Z,4.80
2022-09-21T12:44:28.088Z,8.00
2022-09-21T12:47:12.461Z,3.70
2022-09-21T12:49:45.027Z,3.70
2022-09-21T12:51:07.206Z,0
2022-09-21T12:52:20.094Z,3.58
2022-09-21T12:55:06.366Z,3.83
2022-09-21T12:58:13.935Z,4.87
2022-09-21T12:58:18.046Z,0
2022-09-21T13:01:09.431Z,3.92
2022-09-21T13:06:38.259Z,4.40
2022-09-21T13:09:08.561Z,4.10
2022-09-21T13:11:54.021Z,4.20
2022-09-21T13:14:21.294Z,3.60
2022-09-21T13:16:55.738Z,4.60
2022-09-21T13:19:25.381Z,6.70
2022-09-21T13:22:12.798Z,3.92
2022-09-21T13:24:40.418Z,4.45
2022-09-21T13:27:07.231Z,4.50
2022-09-21T13:29:36.619Z,3.90
2022-09-21T13:31:46.383Z,0
2022-09-21T13:32:12.810Z,3.92
2022-09-21T13:36:50.746Z,0
2022-09-21T13:38:27.080Z,3.65
2022-09-21T13:41:02.645Z,3.60
2022-09-21T13:43:52.977Z,3.55
2022-09-21T13:46:35.062Z,4.27
2022-09-21T13:49:13.826Z,4.38
2022-09-21T13:52:04.786Z,3.60
2022-09-21T13:57:48.287Z,3.92
2022-09-21T14:00:17.842Z,4.00
2022-09-21T14:02:50.373Z,3.15
2022-09-21T14:05:17.106Z,4.75
2022-09-21T14:07:45.700Z,4.40
2022-09-21T14:10:19.659Z,3.70
2022-09-21T14:15:37.900Z,3.45
2022-09-21T14:18:13.492Z,3.10
2022-09-21T14:20:40.435Z,4.60
2022-09-21T14:23:16.292Z,5.05
2022-09-21T14:25:51.755Z,3.25
2022-09-21T14:31:33.222Z,3.90
2022-09-21T14:34:04.231Z,3.63
2022-09-21T14:36:42.361Z,5.47
2022-09-21T14:39:20.468Z,3.70
2022-09-21T14:41:51.754Z,3.33
2022-09-21T14:44:22.466Z,3.20
2022-09-21T14:47:04.939Z,3.40
2022-09-21T14:49:37.787Z,3.30
2022-09-21T14:52:32.167Z,3.45
2022-09-21T14:52:33.095Z,0
2022-09-21T14:55:23.637Z,3.80
2022-09-21T14:58:14.210Z,4.18
2022-09-21T15:00:46.248Z,3.60
2022-09-21T15:03:39.599Z,3.40
2022-09-21T15:15:34.600Z,4.80
2022-09-21T15:18:02.102Z,3.20
2022-09-21T15:20:30.989Z,3.20
2022-09-21T15:22:58.966Z,5.50
2022-09-21T15:25:29.127Z,3.60
2022-09-21T15:27:55.998Z,4.03
2022-09-21T15:29:11.073Z,0
2022-09-21T15:30:27.492Z,4.40
2022-09-21T15:32:59.913Z,3.22
2022-09-21T15:35:29.061Z,4.50
2022-09-21T15:37:57.078Z,3.40
2022-09-21T15:40:29.578Z,3.70
2022-09-21T15:46:00.076Z,3.40
2022-09-21T15:48:32.237Z,3.50
2022-09-21T15:51:24.165Z,4.88
2022-09-21T15:53:59.439Z,4.47
2022-09-21T15:56:27.871Z,3.70
2022-09-21T15:59:04.662Z,3.65
2022-09-21T16:01:31.420Z,5.50
2022-09-21T16:07:05.210Z,7.13
2022-09-21T16:09:44.064Z,17.35
2022-09-21T16:12:25.828Z,17.00
2022-09-21T16:15:20.149Z,10.68
2022-09-21T16:17:56.101Z,5.33
2022-09-21T16:20:24.206Z,3.40
2022-09-21T16:22:53.799Z,3.60
2022-09-21T16:25:23.290Z,3.70
2022-09-21T16:27:57.096Z,4.85
2022-09-21T16:30:44.069Z,9.43
2022-09-21T16:36:30.177Z,9.10
2022-09-21T16:38:56.957Z,6.57
2022-09-21T16:41:31.202Z,3.30
2022-09-21T16:43:58.732Z,4.30
2022-09-21T16:49:17.145Z,3.45
2022-09-21T16:54:31.248Z,3.73
2022-09-21T16:59:47.093Z,4.15
2022-09-21T17:05:00.475Z,6.00
2022-09-21T17:07:27.202Z,5.20
2022-09-21T17:09:54.020Z,3.27
2022-09-21T17:12:20.762Z,3.75
2022-09-21T17:14:47.695Z,4.47
2022-09-21T17:17:19.832Z,3.10
2022-09-21T17:19:47.520Z,6.05
2022-09-21T17:24:54.633Z,0
2022-09-21T17:25:00.970Z,2.83
2022-09-21T17:27:27.752Z,5.10
2022-09-21T17:29:54.607Z,3.28
2022-09-21T17:32:23.852Z,4.50
2022-09-21T17:35:11.079Z,4.75
2022-09-21T17:40:25.236Z,5.20
2022-09-21T17:45:49.865Z,4.60
2022-09-21T17:48:22.238Z,5.30
2022-09-21T17:50:50.008Z,6.30
2022-09-21T17:53:17.261Z,4.60
2022-09-21T17:55:50.522Z,4.65
2022-09-21T17:58:47.931Z,4.72
2022-09-21T18:01:22.150Z,3.50
2022-09-21T18:03:49.242Z,4.30
2022-09-21T18:06:16.427Z,3.60
2022-09-21T18:08:43.791Z,3.90
2022-09-21T18:12:01.601Z,4.60
2022-09-21T18:14:50.208Z,4.00
2022-09-21T18:20:40.493Z,3.70
2022-09-21T18:23:19.334Z,4.70
2022-09-21T18:25:46.744Z,5.47
2022-09-21T18:28:32.234Z,7.63
2022-09-21T18:29:43.245Z,0
2022-09-21T18:31:39.688Z,3.90
2022-09-21T18:34:25.245Z,4.10
2022-09-21T18:40:39.169Z,4.53
2022-09-21T18:43:26.180Z,3.10
2022-09-21T18:46:09.358Z,4.60
2022-09-21T18:48:51.003Z,3.67
2022-09-21T18:51:27.252Z,7.00
2022-09-21T18:53:55.599Z,5.00
2022-09-21T18:56:28.602Z,7.70
2022-09-21T18:58:55.590Z,3.45
2022-09-21T19:00:37.596Z,0
2022-09-21T19:07:48.351Z,6.10
2022-09-21T19:10:19.556Z,4.70
2022-09-21T19:13:23.890Z,5.28
2022-09-21T19:16:19.280Z,5.72
2022-09-21T19:25:29.663Z,6.50
2022-09-21T19:28:05.893Z,6.05
2022-09-21T19:30:33.602Z,7.30
2022-09-21T19:33:07.869Z,5.20
2022-09-21T19:33:53.071Z,0
2022-09-21T19:35:34.793Z,4.22
2022-09-21T19:38:03.282Z,6.97
2022-09-21T19:40:37.163Z,3.92
2022-09-21T19:43:25.042Z,4.77
2022-09-21T19:46:16.003Z,4.10
2022-09-21T19:48:48.261Z,3.75
2022-09-21T19:51:37.673Z,5.40
2022-09-21T19:56:59.889Z,4.00
2022-09-21T20:02:25.909Z,4.63
2022-09-21T20:04:58.101Z,3.47
2022-09-21T20:07:48.073Z,3.67
2022-09-21T20:10:21.078Z,3.20
2022-09-21T20:16:37.557Z,4.38
2022-09-21T20:17:25.552Z,0
2022-09-21T20:19:11.145Z,4.90
2022-09-21T20:24:53.767Z,5.50
2022-09-21T20:27:37.903Z,5.15
2022-09-21T20:30:10.529Z,4.60
2022-09-21T20:32:39.665Z,3.10
2022-09-21T20:35:15.685Z,5.57
2022-09-21T20:37:42.721Z,7.30
2022-09-21T20:40:10.042Z,3.78
2022-09-21T20:45:48.605Z,5.50
2022-09-21T20:45:57.104Z,0
2022-09-21T20:48:15.408Z,5.10
2022-09-21T20:50:47.072Z,4.25
2022-09-21T20:53:13.856Z,3.70
2022-09-21T20:55:41.124Z,6.13
2022-09-21T20:58:11.783Z,7.00
2022-09-21T21:00:39.025Z,4.25
2022-09-21T21:03:05.743Z,3.22
2022-09-21T21:05:32.548Z,5.00
2022-09-21T21:08:00.097Z,4.50
2022-09-21T21:10:27.097Z,7.47
2022-09-21T21:12:53.877Z,4.40
2022-09-21T21:15:20.677Z,4.72
2022-09-21T21:17:47.913Z,3.80
2022-09-21T21:20:14.817Z,3.00
2022-09-21T21:22:41.556Z,3.53
2022-09-21T21:25:08.797Z,5.25
2022-09-21T21:27:35.611Z,3.50
2022-09-21T21:30:02.828Z,4.18
2022-09-21T21:35:16.239Z,2.85
2022-09-21T21:40:29.670Z,3.50
2022-09-21T21:45:43.197Z,4.43
2022-09-21T21:47:43.343Z,0
2022-09-21T21:48:09.954Z,2.60
2022-09-21T21:50:36.666Z,5.13
2022-09-21T21:55:50.095Z,6.38
2022-09-21T22:01:24.458Z,4.60
2022-09-21T22:03:56.382Z,4.20
2022-09-21T22:06:24.683Z,3.83
2022-09-21T22:11:39.065Z,5.40
2022-09-21T22:16:34.811Z,3.20
2022-09-21T22:19:06.893Z,4.15
2022-09-21T22:21:40.270Z,2.95
2022-09-21T22:24:08.120Z,3.22
2022-09-21T22:29:27.081Z,2.60
2022-09-21T22:31:53.904Z,2.83
2022-09-21T22:34:20.741Z,3.50
2022-09-21T22:36:47.657Z,3.20
2022-09-21T22:39:14.449Z,3.10
2022-09-21T22:41:42.391Z,2.78
2022-09-21T22:44:10.219Z,3.60
2022-09-21T22:46:37.565Z,5.40
2022-09-21T22:49:04.739Z,4.10
2022-09-21T22:51:31.654Z,3.80
2022-09-21T22:53:58.440Z,6.22
2022-09-21T22:56:27.661Z,3.47
2022-09-21T22:58:56.920Z,5.90
2022-09-21T23:01:36.372Z,4.10
2022-09-21T23:04:09.638Z,5.53
2022-09-21T23:06:40.605Z,5.78
2022-09-21T23:09:18.642Z,3.13
2022-09-21T23:11:48.673Z,4.57
2022-09-21T23:14:16.666Z,3.65
2022-09-21T23:16:43.647Z,5.05
2022-09-21T23:19:10.595Z,4.65
2022-09-21T23:21:37.513Z,4.05
2022-09-21T23:24:04.308Z,4.10
2022-09-21T23:26:32.127Z,5.22
2022-09-21T23:29:02.130Z,3.80
2022-09-21T23:31:30.771Z,4.40
2022-09-21T23:33:59.891Z,3.22
2022-09-21T23:36:30.567Z,4.35
2022-09-21T23:38:57.825Z,3.60
2022-09-21T23:41:33.409Z,3.90
2022-09-21T23:44:00.476Z,2.90
2022-09-21T23:46:36.025Z,3.77
2022-09-21T23:49:02.907Z,3.00
2022-09-21T23:51:29.788Z,3.40
2022-09-21T23:53:57.490Z,2.95
2022-09-21T23:56:24.321Z,2.70
2022-09-21T23:58:51.559Z,3.38
